createdAt,value
2022-10-11T00:01:02.266Z,69.98
2022-10-11T00:03:36.657Z,69.91
2022-10-11T00:06:06.637Z,69.90
2022-10-11T00:08:35.722Z,69.97
2022-10-11T00:11:06.442Z,70.20
2022-10-11T00:13:34.572Z,70.20
2022-10-11T00:16:08.877Z,70.21
2022-10-11T00:18:46.519Z,70.24
2022-10-11T00:21:16.504Z,70.40
2022-10-11T00:23:44.346Z,70.37
2022-10-11T00:26:12.399Z,70.48
2022-10-11T00:28:41.741Z,70.38
2022-10-11T00:31:15.796Z,70.38
2022-10-11T00:33:44.281Z,70.55
2022-10-11T00:36:16.877Z,70.43
2022-10-11T00:38:45.938Z,70.53
2022-10-11T00:41:14.365Z,70.55
2022-10-11T00:43:42.795Z,70.59
2022-10-11T00:46:13.908Z,70.76
2022-10-11T00:48:48.998Z,70.63
2022-10-11T00:51:23.970Z,70.69
2022-10-11T00:53:53.660Z,70.50
2022-10-11T00:56:26.574Z,70.52
2022-10-11T00:58:56.163Z,70.47
2022-10-11T01:01:24.189Z,70.43
2022-10-11T01:03:52.351Z,70.44
2022-10-11T01:06:20.136Z,70.71
2022-10-11T01:08:50.207Z,70.73
2022-10-11T01:11:21.594Z,70.93
2022-10-11T01:14:06.412Z,71.11
2022-10-11T01:16:37.153Z,71.07
2022-10-11T01:19:27.451Z,71.21
2022-10-11T01:22:35.157Z,71.37
2022-10-11T01:25:48.384Z,71.43
2022-10-11T01:28:16.489Z,71.62
2022-10-11T01:30:45.763Z,71.77
2022-10-11T01:33:16.799Z,71.77
2022-10-11T01:36:17.399Z,71.89
2022-10-11T01:38:54.929Z,71.75
2022-10-11T01:41:31.392Z,71.75
2022-10-11T01:44:02.544Z,71.91
2022-10-11T01:46:31.412Z,71.92
2022-10-11T01:49:02.134Z,72.06
2022-10-11T01:51:38.595Z,72.08
2022-10-11T01:54:11.793Z,72.16
2022-10-11T01:56:49.839Z,72.33
2022-10-11T01:59:46.052Z,72.38
2022-10-11T02:02:38.944Z,72.54
2022-10-11T02:05:07.007Z,72.60
2022-10-11T02:07:49.327Z,72.92
2022-10-11T02:10:33.334Z,72.95
2022-10-11T02:13:17.279Z,73.08
2022-10-11T02:15:48.608Z,73.23
2022-10-11T02:18:23.232Z,73.23
2022-10-11T02:20:53.135Z,73.34
2022-10-11T02:23:28.354Z,73.23
2022-10-11T02:25:58.077Z,73.26
2022-10-11T02:28:31.925Z,73.25
2022-10-11T02:31:02.217Z,73.45
2022-10-11T02:33:39.016Z,73.55
2022-10-11T02:36:25.370Z,73.82
2022-10-11T02:38:59.737Z,73.70
2022-10-11T02:41:36.563Z,73.76
2022-10-11T02:44:13.908Z,73.71
2022-10-11T02:46:43.918Z,73.90
2022-10-11T02:49:13.429Z,73.84
2022-10-11T02:51:41.508Z,74.03
2022-10-11T02:54:09.535Z,74.20
2022-10-11T02:56:37.541Z,74.39
2022-10-11T02:59:05.419Z,74.25
2022-10-11T03:01:33.606Z,74.12
2022-10-11T03:04:01.551Z,74.16
2022-10-11T03:06:29.466Z,74.22
2022-10-11T03:08:57.346Z,74.04
2022-10-11T03:11:26.120Z,74.08
2022-10-11T03:13:54.005Z,74.05
2022-10-11T03:16:22.063Z,73.96
2022-10-11T03:18:50.235Z,74.02
2022-10-11T03:21:18.744Z,73.84
2022-10-11T03:23:46.585Z,73.78
2022-10-11T03:26:14.588Z,73.84
2022-10-11T03:28:42.646Z,73.87
2022-10-11T03:31:10.594Z,73.99
2022-10-11T03:33:38.788Z,73.97
2022-10-11T03:36:09.273Z,74.02
2022-10-11T03:38:37.342Z,74.29
2022-10-11T03:41:05.453Z,74.25
2022-10-11T03:43:33.575Z,74.30
2022-10-11T03:46:01.657Z,74.39
2022-10-11T03:48:29.938Z,74.40
2022-10-11T03:50:58.186Z,74.32
2022-10-11T03:53:26.165Z,74.28
2022-10-11T03:55:55.407Z,74.23
2022-10-11T03:58:24.205Z,74.31
2022-10-11T04:00:53.970Z,74.28
2022-10-11T04:03:21.856Z,74.20
2022-10-11T04:05:50.193Z,74.14
2022-10-11T04:08:17.971Z,73.92
2022-10-11T04:10:45.866Z,74.09
2022-10-11T04:13:13.981Z,74.11
2022-10-11T04:15:41.894Z,74.14
2022-10-11T04:18:10.172Z,73.88
2022-10-11T04:20:38.287Z,73.80
2022-10-11T04:23:06.440Z,73.95
2022-10-11T04:25:34.412Z,73.95
2022-10-11T04:28:02.948Z,74.11
2022-10-11T04:30:30.859Z,74.07
2022-10-11T04:32:59.384Z,74.19
2022-10-11T04:35:27.731Z,74.22
2022-10-11T04:37:55.861Z,74.15
2022-10-11T04:40:24.109Z,74.31
2022-10-11T04:42:54.113Z,74.38
2022-10-11T04:45:22.284Z,74.50
2022-10-11T04:47:50.883Z,74.39
2022-10-11T04:50:20.291Z,74.43
2022-10-11T04:52:48.337Z,74.44
2022-10-11T04:55:17.016Z,74.45
2022-10-11T04:57:44.992Z,74.30
2022-10-11T05:00:13.369Z,74.25
2022-10-11T05:02:41.529Z,74.22
2022-10-11T05:05:10.179Z,74.22
2022-10-11T05:07:38.350Z,74.38
2022-10-11T05:10:07.026Z,74.38
2022-10-11T05:12:35.159Z,74.72
2022-10-11T05:15:03.446Z,74.80
2022-10-11T05:17:31.379Z,74.70
2022-10-11T05:19:59.311Z,74.87
2022-10-11T05:22:27.481Z,74.85
2022-10-11T05:24:55.507Z,75.06
2022-10-11T05:27:23.546Z,75.01
2022-10-11T05:29:51.521Z,75.26
2022-10-11T05:32:19.824Z,75.16
2022-10-11T05:34:47.872Z,75.37
2022-10-11T05:37:16.034Z,75.31
2022-10-11T05:39:43.957Z,75.39
2022-10-11T05:42:12.016Z,75.50
2022-10-11T05:44:40.038Z,75.49
2022-10-11T05:47:08.032Z,75.41
2022-10-11T05:49:36.045Z,75.55
2022-10-11T05:52:04.059Z,75.61
2022-10-11T05:54:32.546Z,75.46
2022-10-11T05:57:00.656Z,75.51
2022-10-11T05:59:28.666Z,75.53
2022-10-11T06:01:56.696Z,75.77
2022-10-11T06:04:24.877Z,75.66
2022-10-11T06:06:53.072Z,75.84
2022-10-11T06:09:21.129Z,75.86
2022-10-11T06:11:49.044Z,75.76
2022-10-11T06:14:16.951Z,75.92
2022-10-11T06:16:44.984Z,75.78
2022-10-11T06:19:13.017Z,75.79
2022-10-11T06:21:41.118Z,75.84
2022-10-11T06:24:09.479Z,75.94
2022-10-11T06:26:37.517Z,75.84
2022-10-11T06:29:05.656Z,76.06
2022-10-11T06:31:34.391Z,75.99
2022-10-11T06:34:02.623Z,75.88
2022-10-11T06:36:31.005Z,75.69
2022-10-11T06:39:01.586Z,75.49
2022-10-11T06:41:30.763Z,75.30
2022-10-11T06:43:58.729Z,75.29
2022-10-11T06:46:28.412Z,75.05
2022-10-11T06:48:56.772Z,75.11
2022-10-11T06:51:25.596Z,74.86
2022-10-11T06:53:58.267Z,74.70
2022-10-11T06:56:27.916Z,74.63
2022-10-11T06:58:57.707Z,74.81
2022-10-11T07:01:26.679Z,74.72
2022-10-11T07:03:57.706Z,74.60
2022-10-11T07:06:28.286Z,74.49
2022-10-11T07:08:56.857Z,74.50
2022-10-11T07:11:27.120Z,74.46
2022-10-11T07:14:01.386Z,74.47
2022-10-11T07:16:29.342Z,74.52
2022-10-11T07:19:00.935Z,74.46
2022-10-11T07:21:30.818Z,74.39
2022-10-11T07:23:59.426Z,74.46
2022-10-11T07:26:32.434Z,74.55
2022-10-11T07:29:05.936Z,74.46
2022-10-11T07:31:33.924Z,74.43
2022-10-11T07:34:01.730Z,74.53
2022-10-11T07:36:29.978Z,74.57
2022-10-11T07:38:57.888Z,74.29
2022-10-11T07:41:25.822Z,74.18
2022-10-11T07:43:55.024Z,74.04
2022-10-11T07:46:23.054Z,73.94
2022-10-11T07:48:50.996Z,73.66
2022-10-11T07:51:22.962Z,73.68
2022-10-11T07:53:56.622Z,73.75
2022-10-11T07:56:32.406Z,73.23
2022-10-11T07:59:03.787Z,73.24
2022-10-11T08:01:32.398Z,73.33
2022-10-11T08:04:00.728Z,73.30
2022-10-11T08:06:32.552Z,73.38
2022-10-11T08:09:02.067Z,73.27
2022-10-11T08:11:33.644Z,73.35
2022-10-11T08:14:04.564Z,73.33
2022-10-11T08:16:33.516Z,73.50
2022-10-11T08:19:03.240Z,73.34
2022-10-11T08:21:34.275Z,73.14
2022-10-11T08:24:03.967Z,73.15
2022-10-11T08:26:33.367Z,73.22
2022-10-11T08:29:03.539Z,73.15
2022-10-11T08:31:32.727Z,73.14
2022-10-11T08:34:00.688Z,73.04
2022-10-11T08:36:28.918Z,72.92
2022-10-11T08:38:57.396Z,72.90
2022-10-11T08:41:28.551Z,72.84
2022-10-11T08:43:56.809Z,72.53
2022-10-11T08:46:31.264Z,71.94
2022-10-11T08:49:01.682Z,71.53
2022-10-11T08:52:02.852Z,71.38
2022-10-11T08:54:48.170Z,71.16
2022-10-11T08:57:37.396Z,71.06
2022-10-11T09:00:14.169Z,71.21
2022-10-11T09:03:21.946Z,71.53
2022-10-11T09:06:32.039Z,71.59
2022-10-11T09:09:18.279Z,71.78
2022-10-11T09:11:49.224Z,71.42
2022-10-11T09:14:34.531Z,71.67
2022-10-11T09:17:20.856Z,71.56
2022-10-11T09:20:01.354Z,71.42
2022-10-11T09:23:09.876Z,71.42
2022-10-11T09:26:04.117Z,71.07
2022-10-11T09:28:46.435Z,70.49
2022-10-11T09:31:16.012Z,69.95
2022-10-11T09:33:49.367Z,70.07
2022-10-11T09:36:20.576Z,69.79
2022-10-11T09:38:57.591Z,69.77
2022-10-11T09:41:36.985Z,69.77
2022-10-11T09:44:07.284Z,69.87
2022-10-11T09:46:40.582Z,69.90
2022-10-11T09:49:14.543Z,69.40
2022-10-11T09:51:47.771Z,69.05
2022-10-11T09:54:27.456Z,69.06
2022-10-11T09:56:55.769Z,68.53
2022-10-11T09:59:35.915Z,68.27
2022-10-11T10:02:13.916Z,68.70
2022-10-11T10:05:00.716Z,68.30
2022-10-11T10:07:31.759Z,67.94
2022-10-11T10:10:09.720Z,67.85
2022-10-11T10:12:37.956Z,67.76
2022-10-11T10:15:19.209Z,67.43
2022-10-11T10:17:52.148Z,66.59
2022-10-11T10:20:24.905Z,66.54
2022-10-11T10:22:54.144Z,66.15
2022-10-11T10:25:30.371Z,66.18
2022-10-11T10:28:01.294Z,66.00
2022-10-11T10:30:35.225Z,65.95
2022-10-11T10:33:11.480Z,65.69
2022-10-11T10:35:45.732Z,66.05
2022-10-11T10:38:25.546Z,66.17
2022-10-11T10:41:01.562Z,65.56
2022-10-11T10:43:34.956Z,64.56
2022-10-11T10:46:12.325Z,64.37
2022-10-11T10:49:19.166Z,64.50
2022-10-11T10:51:50.845Z,64.58
2022-10-11T10:54:30.726Z,64.17
2022-10-11T10:57:03.757Z,64.01
2022-10-11T10:59:45.289Z,64.21
2022-10-11T11:02:39.804Z,63.82
2022-10-11T11:05:26.309Z,63.14
2022-10-11T11:08:17.256Z,63.22
2022-10-11T11:10:57.797Z,63.29
2022-10-11T11:13:37.902Z,63.33
2022-10-11T11:16:37.404Z,63.42
2022-10-11T11:19:05.450Z,63.17
2022-10-11T11:22:07.004Z,61.99
2022-10-11T11:24:40.884Z,60.37
2022-10-11T11:27:18.548Z,59.67
2022-10-11T11:30:00.614Z,60.06
2022-10-11T11:33:00.842Z,59.98
2022-10-11T11:35:38.157Z,60.06
2022-10-11T11:38:40.659Z,59.90
2022-10-11T11:41:29.904Z,58.80
2022-10-11T11:44:15.971Z,59.18
2022-10-11T11:46:45.641Z,59.73
2022-10-11T11:49:38.078Z,59.09
2022-10-11T11:52:08.590Z,58.19
2022-10-11T11:55:00.180Z,58.50
2022-10-11T11:57:47.044Z,57.96
2022-10-11T12:00:23.832Z,58.29
2022-10-11T12:03:03.795Z,57.97
2022-10-11T12:05:36.256Z,58.16
2022-10-11T12:08:24.274Z,57.93
2022-10-11T12:11:01.564Z,58.15
2022-10-11T12:13:38.094Z,58.00
2022-10-11T12:16:14.833Z,58.71
2022-10-11T12:18:54.325Z,57.94
2022-10-11T12:21:33.430Z,57.16
2022-10-11T12:24:15.145Z,56.49
2022-10-11T12:26:45.572Z,55.69
2022-10-11T12:29:27.432Z,55.70
2022-10-11T12:32:00.397Z,56.10
2022-10-11T12:34:36.711Z,56.54
2022-10-11T12:37:20.130Z,56.24
2022-10-11T12:39:58.984Z,55.88
2022-10-11T12:42:34.745Z,56.04
2022-10-11T12:45:14.781Z,55.79
2022-10-11T12:48:01.799Z,55.45
2022-10-11T12:50:48.044Z,54.61
2022-10-11T12:53:41.156Z,54.43
2022-10-11T12:56:45.408Z,54.40
2022-10-11T12:59:22.759Z,54.74
2022-10-11T13:01:53.766Z,54.59
2022-10-11T13:04:29.263Z,54.22
2022-10-11T13:07:06.755Z,54.23
2022-10-11T13:09:44.167Z,54.39
2022-10-11T13:12:23.476Z,54.54
2022-10-11T13:15:07.215Z,55.10
2022-10-11T13:17:38.778Z,55.07
2022-10-11T13:20:16.467Z,54.84
2022-10-11T13:22:47.914Z,54.92
2022-10-11T13:25:23.828Z,55.51
2022-10-11T13:27:53.636Z,55.19
2022-10-11T13:30:27.905Z,54.71
2022-10-11T13:32:59.386Z,55.09
2022-10-11T13:35:30.842Z,55.06
2022-10-11T13:37:59.630Z,55.05
2022-10-11T13:40:28.592Z,54.91
2022-10-11T13:42:57.710Z,54.82
2022-10-11T13:45:30.675Z,54.68
2022-10-11T13:47:59.231Z,54.45
2022-10-11T13:50:33.782Z,54.49
2022-10-11T13:53:12.258Z,54.25
2022-10-11T13:55:53.622Z,53.65
2022-10-11T13:58:28.749Z,52.56
2022-10-11T14:01:06.817Z,51.91
2022-10-11T14:03:44.002Z,51.79
2022-10-11T14:06:12.550Z,50.48
2022-10-11T14:08:48.582Z,50.54
2022-10-11T14:11:33.756Z,50.61
2022-10-11T14:14:28.601Z,49.72
2022-10-11T14:17:13.155Z,50.30
2022-10-11T14:19:42.792Z,49.75
2022-10-11T14:22:17.282Z,50.34
2022-10-11T14:24:48.705Z,50.20
2022-10-11T14:27:20.726Z,48.76
2022-10-11T14:30:12.884Z,48.86
2022-10-11T14:32:42.344Z,48.59
2022-10-11T14:35:23.765Z,48.80
2022-10-11T14:37:52.507Z,47.28
2022-10-11T14:40:27.332Z,47.23
2022-10-11T14:42:55.406Z,46.21
2022-10-11T14:45:24.489Z,46.05
2022-10-11T14:47:52.497Z,45.92
2022-10-11T14:50:47.978Z,45.44
2022-10-11T14:53:16.832Z,45.52
2022-10-11T14:55:45.150Z,46.00
2022-10-11T14:58:15.791Z,46.42
2022-10-11T15:00:44.799Z,46.70
2022-10-11T15:03:14.122Z,46.71
2022-10-11T15:05:42.318Z,46.70
2022-10-11T15:08:15.359Z,47.05
2022-10-11T15:10:43.204Z,47.22
2022-10-11T15:13:11.265Z,47.52
2022-10-11T15:15:41.563Z,47.78
2022-10-11T15:18:13.233Z,48.39
2022-10-11T15:20:45.326Z,48.63
2022-10-11T15:23:13.661Z,49.20
2022-10-11T15:25:42.269Z,49.65
2022-10-11T15:28:24.147Z,50.10
2022-10-11T15:30:52.770Z,50.30
2022-10-11T15:33:21.524Z,51.04
2022-10-11T15:35:49.706Z,52.12
2022-10-11T15:38:23.168Z,52.09
2022-10-11T15:40:52.385Z,52.39
2022-10-11T15:43:24.503Z,53.18
2022-10-11T15:45:55.005Z,53.89
2022-10-11T15:48:26.443Z,54.29
2022-10-11T15:50:55.171Z,54.44
2022-10-11T15:53:28.675Z,55.16
2022-10-11T15:56:01.047Z,55.76
2022-10-11T15:58:32.915Z,56.28
2022-10-11T16:01:13.912Z,56.69
2022-10-11T16:03:42.192Z,57.32
2022-10-11T16:06:11.146Z,57.46
2022-10-11T16:08:39.495Z,57.66
2022-10-11T16:11:08.816Z,57.96
2022-10-11T16:13:37.223Z,58.53
2022-10-11T16:16:07.955Z,58.70
2022-10-11T16:18:36.885Z,59.01
2022-10-11T16:21:10.197Z,59.53
2022-10-11T16:23:50.121Z,59.76
2022-10-11T16:26:18.512Z,60.02
2022-10-11T16:28:48.621Z,60.35
2022-10-11T16:31:20.881Z,60.54
2022-10-11T16:33:50.323Z,60.70
2022-10-11T16:36:36.756Z,60.94
2022-10-11T16:39:14.606Z,61.24
2022-10-11T16:41:43.562Z,61.20
2022-10-11T16:44:14.724Z,61.38
2022-10-11T16:46:42.906Z,61.55
2022-10-11T16:49:11.070Z,61.78
2022-10-11T16:51:39.549Z,61.96
2022-10-11T16:54:07.576Z,62.36
2022-10-11T16:56:39.757Z,62.65
2022-10-11T16:59:08.390Z,62.70
2022-10-11T17:01:37.266Z,62.74
2022-10-11T17:07:08.267Z,63.48
2022-10-11T17:09:39.165Z,63.75
2022-10-11T17:12:16.862Z,63.77
2022-10-11T17:14:45.051Z,63.75
2022-10-11T17:17:13.149Z,63.93
2022-10-11T17:19:45.232Z,64.20
2022-10-11T17:22:17.102Z,64.60
2022-10-11T17:24:45.891Z,64.50
2022-10-11T17:27:14.440Z,64.67
2022-10-11T17:29:42.489Z,64.87
2022-10-11T17:32:10.638Z,64.91
2022-10-11T17:34:38.498Z,65.22
2022-10-11T17:37:08.872Z,65.12
2022-10-11T17:39:37.006Z,65.24
2022-10-11T17:42:07.594Z,65.42
2022-10-11T17:44:36.086Z,65.31
2022-10-11T17:47:04.338Z,65.69
2022-10-11T17:49:32.214Z,65.60
2022-10-11T17:52:00.565Z,65.81
2022-10-11T17:54:28.510Z,65.77
2022-10-11T17:56:56.601Z,66.06
2022-10-11T17:59:27.565Z,66.08
2022-10-11T18:01:55.737Z,66.28
2022-10-11T18:04:26.981Z,66.21
2022-10-11T18:06:55.273Z,66.46
2022-10-11T18:09:24.829Z,66.53
2022-10-11T18:11:53.083Z,66.87
2022-10-11T18:14:21.329Z,66.56
2022-10-11T18:16:49.571Z,67.01
2022-10-11T18:19:17.741Z,67.06
2022-10-11T18:21:45.949Z,67.22
2022-10-11T18:24:16.574Z,67.31
2022-10-11T18:26:46.761Z,67.31
2022-10-11T18:29:15.156Z,67.64
2022-10-11T18:31:44.086Z,67.72
2022-10-11T18:34:13.128Z,67.87
2022-10-11T18:36:42.074Z,67.77
2022-10-11T18:39:13.553Z,68.02
2022-10-11T18:41:44.666Z,68.00
2022-10-11T18:44:15.516Z,67.97
2022-10-11T18:46:45.270Z,68.06
2022-10-11T18:49:14.158Z,68.02
2022-10-11T18:51:43.192Z,68.12
2022-10-11T18:54:15.331Z,68.27
2022-10-11T18:56:47.467Z,68.16
2022-10-11T18:59:16.252Z,68.17
2022-10-11T19:01:44.851Z,68.33
2022-10-11T19:04:16.247Z,68.48
2022-10-11T19:06:47.997Z,68.64
2022-10-11T19:09:23.137Z,68.62
2022-10-11T19:11:53.988Z,68.65
2022-10-11T19:14:26.185Z,68.73
2022-10-11T19:16:56.251Z,68.92
2022-10-11T19:19:27.112Z,68.97
2022-10-11T19:21:55.546Z,69.05
2022-10-11T19:24:25.918Z,69.09
2022-10-11T19:26:59.760Z,69.15
2022-10-11T19:29:31.154Z,69.44
2022-10-11T19:32:01.291Z,69.49
2022-10-11T19:34:32.046Z,69.29
2022-10-11T19:37:01.307Z,69.49
2022-10-11T19:39:29.738Z,69.39
2022-10-11T19:41:57.769Z,69.44
2022-10-11T19:44:26.100Z,69.52
2022-10-11T19:46:54.983Z,69.57
2022-10-11T19:49:25.329Z,69.46
2022-10-11T19:51:55.689Z,69.77
2022-10-11T19:54:24.010Z,69.84
2022-10-11T19:56:52.766Z,69.76
2022-10-11T19:59:21.002Z,69.79
2022-10-11T20:01:52.859Z,70.07
2022-10-11T20:04:50.656Z,70.16
2022-10-11T20:07:10.600Z,70.16
2022-10-11T20:09:38.741Z,70.05
2022-10-11T20:12:07.197Z,70.07
2022-10-11T20:14:35.230Z,70.22
2022-10-11T20:17:03.396Z,70.40
2022-10-11T20:19:31.916Z,70.40
2022-10-11T20:22:00.991Z,70.60
2022-10-11T20:24:33.755Z,70.58
2022-10-11T20:27:04.906Z,70.50
2022-10-11T20:29:33.492Z,70.82
2022-10-11T20:32:01.591Z,70.87
2022-10-11T20:34:30.766Z,70.93
2022-10-11T20:36:59.689Z,70.93
2022-10-11T20:39:27.678Z,70.78
2022-10-11T20:41:55.647Z,71.01
2022-10-11T20:44:23.833Z,71.05
2022-10-11T20:46:51.818Z,71.07
2022-10-11T20:49:20.823Z,70.87
2022-10-11T20:51:49.138Z,70.90
2022-10-11T20:54:17.314Z,70.91
2022-10-11T20:56:45.445Z,70.91
2022-10-11T20:59:14.057Z,70.97
2022-10-11T21:01:42.247Z,70.88
2022-10-11T21:04:17.920Z,70.94
2022-10-11T21:06:47.049Z,71.13
2022-10-11T21:09:22.614Z,71.04
2022-10-11T21:11:50.756Z,71.14
2022-10-11T21:14:19.336Z,71.00
2022-10-11T21:16:47.221Z,71.07
2022-10-11T21:19:15.825Z,71.10
2022-10-11T21:21:46.433Z,71.09
2022-10-11T21:24:16.574Z,71.14
2022-10-11T21:26:44.755Z,71.08
2022-10-11T21:29:12.886Z,71.12
2022-10-11T21:31:41.076Z,71.33
2022-10-11T21:34:10.028Z,71.18
2022-10-11T21:36:38.960Z,71.17
2022-10-11T21:39:07.071Z,71.29
2022-10-11T21:41:35.089Z,71.48
2022-10-11T21:44:03.480Z,71.47
2022-10-11T21:47:01.312Z,71.36
2022-10-11T21:49:21.445Z,71.32
2022-10-11T21:51:49.457Z,71.33
2022-10-11T21:54:17.733Z,71.58
2022-10-11T21:56:45.878Z,71.61
2022-10-11T21:59:13.900Z,71.76
2022-10-11T22:01:43.485Z,71.84
2022-10-11T22:04:12.121Z,71.69
2022-10-11T22:06:40.693Z,71.90
2022-10-11T22:09:09.132Z,71.76
2022-10-11T22:11:37.886Z,71.68
2022-10-11T22:14:06.107Z,71.84
2022-10-11T22:16:35.798Z,71.84
2022-10-11T22:19:04.299Z,71.79
2022-10-11T22:21:32.451Z,71.86
2022-10-11T22:24:00.630Z,71.89
2022-10-11T22:26:31.193Z,71.82
2022-10-11T22:29:00.570Z,71.98
2022-10-11T22:31:30.145Z,71.89
2022-10-11T22:34:00.441Z,71.98
2022-10-11T22:36:33.955Z,71.92
2022-10-11T22:39:07.650Z,71.96
2022-10-11T22:41:36.720Z,71.88
2022-10-11T22:44:04.927Z,72.14
2022-10-11T22:46:32.802Z,72.19
2022-10-11T22:49:00.882Z,72.04
2022-10-11T22:51:28.819Z,71.89
2022-10-11T22:53:56.725Z,71.97
2022-10-11T22:56:24.864Z,72.01
2022-10-11T22:58:52.718Z,71.94
2022-10-11T23:01:20.766Z,72.04
2022-10-11T23:03:50.860Z,72.18
2022-10-11T23:06:18.925Z,72.33
2022-10-11T23:08:46.729Z,72.11
2022-10-11T23:11:14.999Z,72.19
2022-10-11T23:13:43.092Z,72.18
2022-10-11T23:16:12.872Z,72.40
2022-10-11T23:18:42.169Z,72.37
2022-10-11T23:21:10.762Z,72.46
2022-10-11T23:23:39.967Z,72.32
2022-10-11T23:26:12.602Z,72.37
2022-10-11T23:28:41.866Z,72.34
2022-10-11T23:31:20.263Z,72.38
2022-10-11T23:33:48.795Z,72.33
2022-10-11T23:36:19.548Z,72.32
2022-10-11T23:39:05.854Z,72.29
2022-10-11T23:41:33.745Z,72.25
2022-10-11T23:44:01.770Z,72.28
2022-10-11T23:46:29.794Z,72.25
2022-10-11T23:48:57.773Z,72.30
2022-10-11T23:51:25.840Z,72.36
2022-10-11T23:53:53.840Z,72.28
2022-10-11T23:56:22.098Z,72.35
2022-10-11T23:58:50.184Z,72.26
